sensor_id;sensor_type;location;lat;lon;timestamp;temperature;humidity
19974;DHT22;10148;47.694;9.442;2022-11-20T00:01:05;5.30;99.90
19974;DHT22;10148;47.694;9.442;2022-11-20T00:03:31;5.30;99.90
19974;DHT22;10148;47.694;9.442;2022-11-20T00:06:01;5.30;99.90
19974;DHT22;10148;47.694;9.442;2022-11-20T00:08:27;5.20;99.90
19974;DHT22;10148;47.694;9.442;2022-11-20T00:10:52;5.20;99.90
19974;DHT22;10148;47.694;9.442;2022-11-20T00:13:18;5.20;99.90
19974;DHT22;10148;47.694;9.442;2022-11-20T00:15:43;5.20;99.90
19974;DHT22;10148;47.694;9.442;2022-11-20T00:18:09;5.20;99.90
19974;DHT22;10148;47.694;9.442;2022-11-20T00:20:34;5.20;99.90
19974;DHT22;10148;47.694;9.442;2022-11-20T00:23:00;5.20;99.90
19974;DHT22;10148;47.694;9.442;2022-11-20T00:25:25;5.20;99.90
19974;DHT22;10148;47.694;9.442;2022-11-20T00:27:51;5.20;99.90
19974;DHT22;10148;47.694;9.442;2022-11-20T00:30:16;5.10;99.90
19974;DHT22;10148;47.694;9.442;2022-11-20T00:32:42;5.10;99.90
19974;DHT22;10148;47.694;9.442;2022-11-20T00:35:08;5.10;99.90
19974;DHT22;10148;47.694;9.442;2022-11-20T00:37:33;5.10;99.90
19974;DHT22;10148;47.694;9.442;2022-11-20T00:39:59;5.10;99.90
19974;DHT22;10148;47.694;9.442;2022-11-20T00:42:24;5.10;99.90
19974;DHT22;10148;47.694;9.442;2022-11-20T00:44:50;5.10;99.90
19974;DHT22;10148;47.694;9.442;2022-11-20T00:47:15;5.10;99.90
19974;DHT22;10148;47.694;9.442;2022-11-20T00:49:41;5.10;99.90
19974;DHT22;10148;47.694;9.442;2022-11-20T00:52:06;5.10;99.90
19974;DHT22;10148;47.694;9.442;2022-11-20T00:54:32;5.10;99.90
19974;DHT22;10148;47.694;9.442;2022-11-20T00:56:57;5.10;99.90
19974;DHT22;10148;47.694;9.442;2022-11-20T00:59:23;5.10;99.90
19974;DHT22;10148;47.694;9.442;2022-11-20T01:01:48;5.10;99.90
19974;DHT22;10148;47.694;9.442;2022-11-20T01:04:14;5.10;99.90
19974;DHT22;10148;47.694;9.442;2022-11-20T01:06:40;5.10;99.90
19974;DHT22;10148;47.694;9.442;2022-11-20T01:09:11;5.10;99.90
19974;DHT22;10148;47.694;9.442;2022-11-20T01:11:40;5.20;99.90
19974;DHT22;10148;47.694;9.442;2022-11-20T01:14:09;5.10;99.90
19974;DHT22;10148;47.694;9.442;2022-11-20T01:16:37;5.10;99.90
19974;DHT22;10148;47.694;9.442;2022-11-20T01:19:06;5.10;99.90
19974;DHT22;10148;47.694;9.442;2022-11-20T01:21:37;5.10;99.90
19974;DHT22;10148;47.694;9.442;2022-11-20T01:24:04;5.20;99.90
19974;DHT22;10148;47.694;9.442;2022-11-20T01:26:31;5.20;99.90
19974;DHT22;10148;47.694;9.442;2022-11-20T01:28:58;5.20;99.90
19974;DHT22;10148;47.694;9.442;2022-11-20T01:31:30;5.20;99.90
19974;DHT22;10148;47.694;9.442;2022-11-20T01:33:58;5.20;99.90
19974;DHT22;10148;47.694;9.442;2022-11-20T01:36:25;5.20;99.90
19974;DHT22;10148;47.694;9.442;2022-11-20T01:38:52;5.20;99.90
19974;DHT22;10148;47.694;9.442;2022-11-20T01:41:19;5.30;99.90
19974;DHT22;10148;47.694;9.442;2022-11-20T01:44:04;5.30;99.90
19974;DHT22;10148;47.694;9.442;2022-11-20T01:46:31;5.30;99.90
19974;DHT22;10148;47.694;9.442;2022-11-20T01:49:24;5.30;99.90
19974;DHT22;10148;47.694;9.442;2022-11-20T01:51:58;5.30;99.90
19974;DHT22;10148;47.694;9.442;2022-11-20T01:54:33;5.30;99.90
19974;DHT22;10148;47.694;9.442;2022-11-20T01:57:02;5.30;99.90
19974;DHT22;10148;47.694;9.442;2022-11-20T01:59:29;5.40;99.90
19974;DHT22;10148;47.694;9.442;2022-11-20T02:01:55;5.40;99.90
19974;DHT22;10148;47.694;9.442;2022-11-20T02:04:21;5.40;99.90
19974;DHT22;10148;47.694;9.442;2022-11-20T02:07:00;5.40;99.90
19974;DHT22;10148;47.694;9.442;2022-11-20T02:09:26;5.40;99.90
19974;DHT22;10148;47.694;9.442;2022-11-20T02:11:52;5.40;99.90
19974;DHT22;10148;47.694;9.442;2022-11-20T02:14:19;5.40;99.90
19974;DHT22;10148;47.694;9.442;2022-11-20T02:16:47;5.40;99.90
19974;DHT22;10148;47.694;9.442;2022-11-20T02:19:30;5.40;99.90
19974;DHT22;10148;47.694;9.442;2022-11-20T02:22:02;5.40;99.90
19974;DHT22;10148;47.694;9.442;2022-11-20T02:24:31;5.40;99.90
19974;DHT22;10148;47.694;9.442;2022-11-20T02:27:06;5.40;99.90
19974;DHT22;10148;47.694;9.442;2022-11-20T02:29:38;5.40;99.90
19974;DHT22;10148;47.694;9.442;2022-11-20T02:32:05;5.40;99.90
19974;DHT22;10148;47.694;9.442;2022-11-20T02:34:31;5.40;99.90
19974;DHT22;10148;47.694;9.442;2022-11-20T02:36:57;5.30;99.90
19974;DHT22;10148;47.694;9.442;2022-11-20T02:39:25;5.30;99.90
19974;DHT22;10148;47.694;9.442;2022-11-20T02:41:53;5.30;99.90
19974;DHT22;10148;47.694;9.442;2022-11-20T02:44:20;5.30;99.90
19974;DHT22;10148;47.694;9.442;2022-11-20T02:46:45;5.20;99.90
19974;DHT22;10148;47.694;9.442;2022-11-20T02:49:11;5.20;99.90
19974;DHT22;10148;47.694;9.442;2022-11-20T02:51:37;5.20;99.90
19974;DHT22;10148;47.694;9.442;2022-11-20T02:54:03;5.20;99.90
19974;DHT22;10148;47.694;9.442;2022-11-20T02:56:28;5.20;99.90
19974;DHT22;10148;47.694;9.442;2022-11-20T02:58:54;5.20;99.90
19974;DHT22;10148;47.694;9.442;2022-11-20T03:01:20;5.20;99.90
19974;DHT22;10148;47.694;9.442;2022-11-20T03:03:46;5.20;99.90
19974;DHT22;10148;47.694;9.442;2022-11-20T03:06:14;5.10;99.90
19974;DHT22;10148;47.694;9.442;2022-11-20T03:08:40;5.10;99.90
19974;DHT22;10148;47.694;9.442;2022-11-20T03:11:07;5.10;99.90
19974;DHT22;10148;47.694;9.442;2022-11-20T03:13:33;5.10;99.90
19974;DHT22;10148;47.694;9.442;2022-11-20T03:16:04;5.10;99.90
19974;DHT22;10148;47.694;9.442;2022-11-20T03:18:29;5.10;99.90
19974;DHT22;10148;47.694;9.442;2022-11-20T03:20:58;5.10;99.90
19974;DHT22;10148;47.694;9.442;2022-11-20T03:23:25;5.10;99.90
19974;DHT22;10148;47.694;9.442;2022-11-20T03:25:50;5.10;99.90
19974;DHT22;10148;47.694;9.442;2022-11-20T03:28:16;5.10;99.90
19974;DHT22;10148;47.694;9.442;2022-11-20T03:30:41;5.10;99.90
19974;DHT22;10148;47.694;9.442;2022-11-20T03:33:07;5.10;99.90
19974;DHT22;10148;47.694;9.442;2022-11-20T03:35:33;5.10;99.90
19974;DHT22;10148;47.694;9.442;2022-11-20T03:37:58;5.20;99.90
19974;DHT22;10148;47.694;9.442;2022-11-20T03:40:24;5.20;99.90
19974;DHT22;10148;47.694;9.442;2022-11-20T03:42:49;5.20;99.90
19974;DHT22;10148;47.694;9.442;2022-11-20T03:45:17;5.20;99.90
19974;DHT22;10148;47.694;9.442;2022-11-20T03:47:43;5.20;99.90
19974;DHT22;10148;47.694;9.442;2022-11-20T03:50:11;5.20;99.90
19974;DHT22;10148;47.694;9.442;2022-11-20T03:52:38;5.20;99.90
19974;DHT22;10148;47.694;9.442;2022-11-20T03:55:04;5.20;99.90
19974;DHT22;10148;47.694;9.442;2022-11-20T03:57:30;5.20;99.90
19974;DHT22;10148;47.694;9.442;2022-11-20T03:59:55;5.30;99.90
19974;DHT22;10148;47.694;9.442;2022-11-20T04:02:21;5.20;99.90
19974;DHT22;10148;47.694;9.442;2022-11-20T04:04:47;5.20;99.90
19974;DHT22;10148;47.694;9.442;2022-11-20T04:07:12;5.30;99.90
19974;DHT22;10148;47.694;9.442;2022-11-20T04:09:38;5.30;99.90
19974;DHT22;10148;47.694;9.442;2022-11-20T04:12:03;5.20;99.90
19974;DHT22;10148;47.694;9.442;2022-11-20T04:14:29;5.20;99.90
19974;DHT22;10148;47.694;9.442;2022-11-20T04:16:54;5.20;99.90
19974;DHT22;10148;47.694;9.442;2022-11-20T04:19:20;5.20;99.90
19974;DHT22;10148;47.694;9.442;2022-11-20T04:21:46;5.20;99.90
19974;DHT22;10148;47.694;9.442;2022-11-20T04:24:11;5.20;99.90
19974;DHT22;10148;47.694;9.442;2022-11-20T04:26:37;5.20;99.90
19974;DHT22;10148;47.694;9.442;2022-11-20T04:29:03;5.20;99.90
19974;DHT22;10148;47.694;9.442;2022-11-20T04:31:33;5.20;99.90
19974;DHT22;10148;47.694;9.442;2022-11-20T04:34:04;5.20;99.90
19974;DHT22;10148;47.694;9.442;2022-11-20T04:36:30;5.20;99.90
19974;DHT22;10148;47.694;9.442;2022-11-20T04:38:58;5.20;99.90
19974;DHT22;10148;47.694;9.442;2022-11-20T04:41:26;5.20;99.90
19974;DHT22;10148;47.694;9.442;2022-11-20T04:43:54;5.20;99.90
19974;DHT22;10148;47.694;9.442;2022-11-20T04:46:25;5.20;99.90
19974;DHT22;10148;47.694;9.442;2022-11-20T04:48:50;5.20;99.90
19974;DHT22;10148;47.694;9.442;2022-11-20T04:51:16;5.20;99.90
19974;DHT22;10148;47.694;9.442;2022-11-20T04:53:42;5.20;99.90
19974;DHT22;10148;47.694;9.442;2022-11-20T04:56:09;5.20;99.90
19974;DHT22;10148;47.694;9.442;2022-11-20T04:58:35;5.20;99.90
19974;DHT22;10148;47.694;9.442;2022-11-20T05:01:06;5.20;99.90
19974;DHT22;10148;47.694;9.442;2022-11-20T05:03:32;5.20;99.90
19974;DHT22;10148;47.694;9.442;2022-11-20T05:06:02;5.20;99.90
19974;DHT22;10148;47.694;9.442;2022-11-20T05:08:29;5.20;99.90
19974;DHT22;10148;47.694;9.442;2022-11-20T05:11:02;5.20;99.90
19974;DHT22;10148;47.694;9.442;2022-11-20T05:13:28;5.30;99.90
19974;DHT22;10148;47.694;9.442;2022-11-20T05:15:54;5.30;99.90
19974;DHT22;10148;47.694;9.442;2022-11-20T05:18:20;5.30;99.90
19974;DHT22;10148;47.694;9.442;2022-11-20T05:20:45;5.40;99.90
19974;DHT22;10148;47.694;9.442;2022-11-20T05:23:11;5.40;99.90
19974;DHT22;10148;47.694;9.442;2022-11-20T05:25:36;5.40;99.90
19974;DHT22;10148;47.694;9.442;2022-11-20T05:28:02;5.40;99.90
19974;DHT22;10148;47.694;9.442;2022-11-20T05:30:27;5.40;99.90
19974;DHT22;10148;47.694;9.442;2022-11-20T05:32:53;5.40;99.90
19974;DHT22;10148;47.694;9.442;2022-11-20T05:35:19;5.40;99.90
19974;DHT22;10148;47.694;9.442;2022-11-20T05:37:44;5.40;99.90
19974;DHT22;10148;47.694;9.442;2022-11-20T05:40:10;5.50;99.90
19974;DHT22;10148;47.694;9.442;2022-11-20T05:42:36;5.50;99.90
19974;DHT22;10148;47.694;9.442;2022-11-20T05:45:03;5.50;99.90
19974;DHT22;10148;47.694;9.442;2022-11-20T05:47:32;5.50;99.90
19974;DHT22;10148;47.694;9.442;2022-11-20T05:49:58;5.60;99.90
19974;DHT22;10148;47.694;9.442;2022-11-20T05:52:24;5.60;99.90
19974;DHT22;10148;47.694;9.442;2022-11-20T05:54:50;5.50;99.90
19974;DHT22;10148;47.694;9.442;2022-11-20T05:57:16;5.50;99.90
19974;DHT22;10148;47.694;9.442;2022-11-20T05:59:43;5.50;99.90
19974;DHT22;10148;47.694;9.442;2022-11-20T06:02:09;5.50;99.90
19974;DHT22;10148;47.694;9.442;2022-11-20T06:04:34;5.50;99.90
19974;DHT22;10148;47.694;9.442;2022-11-20T06:07:00;5.50;99.90
19974;DHT22;10148;47.694;9.442;2022-11-20T06:09:25;5.50;99.90
19974;DHT22;10148;47.694;9.442;2022-11-20T06:11:51;5.50;99.90
19974;DHT22;10148;47.694;9.442;2022-11-20T06:14:16;5.50;99.90
19974;DHT22;10148;47.694;9.442;2022-11-20T06:16:42;5.40;99.90
19974;DHT22;10148;47.694;9.442;2022-11-20T06:19:07;5.50;99.90
19974;DHT22;10148;47.694;9.442;2022-11-20T06:21:33;5.50;99.90
19974;DHT22;10148;47.694;9.442;2022-11-20T06:23:58;5.50;99.90
19974;DHT22;10148;47.694;9.442;2022-11-20T06:26:26;5.50;99.90
19974;DHT22;10148;47.694;9.442;2022-11-20T06:28:52;5.50;99.90
19974;DHT22;10148;47.694;9.442;2022-11-20T06:31:20;5.50;99.90
19974;DHT22;10148;47.694;9.442;2022-11-20T06:33:47;5.50;99.90
19974;DHT22;10148;47.694;9.442;2022-11-20T06:36:14;5.50;99.90
19974;DHT22;10148;47.694;9.442;2022-11-20T06:38:40;5.50;99.90
19974;DHT22;10148;47.694;9.442;2022-11-20T06:41:08;5.60;99.90
19974;DHT22;10148;47.694;9.442;2022-11-20T06:43:35;5.60;99.90
19974;DHT22;10148;47.694;9.442;2022-11-20T06:46:01;5.60;99.90
19974;DHT22;10148;47.694;9.442;2022-11-20T06:48:28;5.60;99.90
19974;DHT22;10148;47.694;9.442;2022-11-20T06:50:54;5.60;99.90
19974;DHT22;10148;47.694;9.442;2022-11-20T06:53:20;5.60;99.90
19974;DHT22;10148;47.694;9.442;2022-11-20T06:55:47;5.50;99.90
19974;DHT22;10148;47.694;9.442;2022-11-20T06:58:14;5.60;99.90
19974;DHT22;10148;47.694;9.442;2022-11-20T07:00:39;5.50;99.90
19974;DHT22;10148;47.694;9.442;2022-11-20T07:03:07;5.60;99.90
19974;DHT22;10148;47.694;9.442;2022-11-20T07:05:33;5.60;99.90
19974;DHT22;10148;47.694;9.442;2022-11-20T07:07:59;5.60;99.90
19974;DHT22;10148;47.694;9.442;2022-11-20T07:10:25;5.70;99.90
19974;DHT22;10148;47.694;9.442;2022-11-20T07:12:51;5.70;99.90
19974;DHT22;10148;47.694;9.442;2022-11-20T07:15:18;5.70;99.90
19974;DHT22;10148;47.694;9.442;2022-11-20T07:17:44;5.70;99.90
19974;DHT22;10148;47.694;9.442;2022-11-20T07:20:09;5.70;99.90
19974;DHT22;10148;47.694;9.442;2022-11-20T07:22:35;5.70;99.90
19974;DHT22;10148;47.694;9.442;2022-11-20T07:25:01;5.70;99.90
19974;DHT22;10148;47.694;9.442;2022-11-20T07:27:27;5.70;99.90
19974;DHT22;10148;47.694;9.442;2022-11-20T07:29:53;5.80;99.90
19974;DHT22;10148;47.694;9.442;2022-11-20T07:32:18;5.70;99.90
19974;DHT22;10148;47.694;9.442;2022-11-20T07:34:44;5.80;99.90
19974;DHT22;10148;47.694;9.442;2022-11-20T07:37:10;5.80;99.90
19974;DHT22;10148;47.694;9.442;2022-11-20T07:39:35;5.80;99.90
19974;DHT22;10148;47.694;9.442;2022-11-20T07:42:01;5.80;99.90
19974;DHT22;10148;47.694;9.442;2022-11-20T07:44:26;5.80;99.90
19974;DHT22;10148;47.694;9.442;2022-11-20T07:46:52;5.80;99.90
19974;DHT22;10148;47.694;9.442;2022-11-20T07:49:17;5.90;99.90
19974;DHT22;10148;47.694;9.442;2022-11-20T07:51:43;5.90;99.90
19974;DHT22;10148;47.694;9.442;2022-11-20T07:54:08;5.90;99.90
19974;DHT22;10148;47.694;9.442;2022-11-20T07:56:34;5.90;99.90
19974;DHT22;10148;47.694;9.442;2022-11-20T07:59:00;5.90;99.90
19974;DHT22;10148;47.694;9.442;2022-11-20T08:01:25;5.90;99.90
19974;DHT22;10148;47.694;9.442;2022-11-20T08:03:51;6.00;99.90
19974;DHT22;10148;47.694;9.442;2022-11-20T08:06:16;6.00;99.90
19974;DHT22;10148;47.694;9.442;2022-11-20T08:08:43;6.00;99.90
19974;DHT22;10148;47.694;9.442;2022-11-20T08:11:09;6.00;99.90
19974;DHT22;10148;47.694;9.442;2022-11-20T08:13:53;6.00;99.90
19974;DHT22;10148;47.694;9.442;2022-11-20T08:19:06;6.00;99.90
19974;DHT22;10148;47.694;9.442;2022-11-20T08:21:32;6.00;99.90
19974;DHT22;10148;47.694;9.442;2022-11-20T08:23:58;6.00;99.90
19974;DHT22;10148;47.694;9.442;2022-11-20T08:26:25;6.00;99.90
19974;DHT22;10148;47.694;9.442;2022-11-20T08:28:55;6.10;99.90
19974;DHT22;10148;47.694;9.442;2022-11-20T08:31:21;6.10;99.90
19974;DHT22;10148;47.694;9.442;2022-11-20T08:33:47;6.10;99.90
19974;DHT22;10148;47.694;9.442;2022-11-20T08:36:13;6.10;99.90
19974;DHT22;10148;47.694;9.442;2022-11-20T08:38:38;6.10;99.90
19974;DHT22;10148;47.694;9.442;2022-11-20T08:41:04;6.10;99.90
19974;DHT22;10148;47.694;9.442;2022-11-20T08:43:56;6.10;99.90
19974;DHT22;10148;47.694;9.442;2022-11-20T08:46:23;6.10;99.90
19974;DHT22;10148;47.694;9.442;2022-11-20T08:48:49;6.20;99.90
19974;DHT22;10148;47.694;9.442;2022-11-20T08:51:15;6.20;99.90
19974;DHT22;10148;47.694;9.442;2022-11-20T08:53:41;6.20;99.90
19974;DHT22;10148;47.694;9.442;2022-11-20T08:56:07;6.30;99.90
19974;DHT22;10148;47.694;9.442;2022-11-20T08:58:33;6.30;99.90
19974;DHT22;10148;47.694;9.442;2022-11-20T09:00:58;6.30;99.90
19974;DHT22;10148;47.694;9.442;2022-11-20T09:03:24;6.40;99.90
19974;DHT22;10148;47.694;9.442;2022-11-20T09:05:59;6.40;99.90
19974;DHT22;10148;47.694;9.442;2022-11-20T09:08:25;6.50;99.90
19974;DHT22;10148;47.694;9.442;2022-11-20T09:10:52;6.50;99.90
19974;DHT22;10148;47.694;9.442;2022-11-20T09:13:18;6.50;99.90
19974;DHT22;10148;47.694;9.442;2022-11-20T09:15:43;6.50;99.90
19974;DHT22;10148;47.694;9.442;2022-11-20T09:18:09;6.60;99.90
19974;DHT22;10148;47.694;9.442;2022-11-20T09:20:34;6.70;99.90
19974;DHT22;10148;47.694;9.442;2022-11-20T09:23:00;6.80;99.90
19974;DHT22;10148;47.694;9.442;2022-11-20T09:25:26;6.80;99.90
19974;DHT22;10148;47.694;9.442;2022-11-20T09:27:56;6.80;99.90
19974;DHT22;10148;47.694;9.442;2022-11-20T09:30:22;6.90;99.90
19974;DHT22;10148;47.694;9.442;2022-11-20T09:32:47;6.90;99.90
19974;DHT22;10148;47.694;9.442;2022-11-20T09:35:13;6.90;99.90
19974;DHT22;10148;47.694;9.442;2022-11-20T09:37:39;7.00;99.90
19974;DHT22;10148;47.694;9.442;2022-11-20T09:40:06;7.00;99.90
19974;DHT22;10148;47.694;9.442;2022-11-20T09:43:10;7.10;99.90
19974;DHT22;10148;47.694;9.442;2022-11-20T09:54:21;7.10;99.90
19974;DHT22;10148;47.694;9.442;2022-11-20T09:56:55;7.20;99.90
19974;DHT22;10148;47.694;9.442;2022-11-20T10:02:26;7.40;99.90
19974;DHT22;10148;47.694;9.442;2022-11-20T10:05:01;7.50;99.90
19974;DHT22;10148;47.694;9.442;2022-11-20T10:07:36;7.50;99.90
19974;DHT22;10148;47.694;9.442;2022-11-20T10:10:04;7.60;99.90
19974;DHT22;10148;47.694;9.442;2022-11-20T10:13:00;7.60;99.90
19974;DHT22;10148;47.694;9.442;2022-11-20T10:15:43;7.60;99.90
19974;DHT22;10148;47.694;9.442;2022-11-20T10:18:23;7.60;99.90
19974;DHT22;10148;47.694;9.442;2022-11-20T10:23:46;7.70;99.90
19974;DHT22;10148;47.694;9.442;2022-11-20T10:26:42;7.80;99.90
19974;DHT22;10148;47.694;9.442;2022-11-20T10:29:15;7.80;99.90
19974;DHT22;10148;47.694;9.442;2022-11-20T10:31:45;7.90;99.90
19974;DHT22;10148;47.694;9.442;2022-11-20T10:34:14;7.80;99.90
19974;DHT22;10148;47.694;9.442;2022-11-20T10:36:54;7.80;99.90
19974;DHT22;10148;47.694;9.442;2022-11-20T10:39:34;7.90;99.90
19974;DHT22;10148;47.694;9.442;2022-11-20T10:42:00;7.90;99.90
19974;DHT22;10148;47.694;9.442;2022-11-20T10:44:27;7.90;99.90
19974;DHT22;10148;47.694;9.442;2022-11-20T10:47:17;7.90;99.90
19974;DHT22;10148;47.694;9.442;2022-11-20T10:49:46;7.80;99.90
19974;DHT22;10148;47.694;9.442;2022-11-20T11:00:22;7.80;99.90
19974;DHT22;10148;47.694;9.442;2022-11-20T11:02:50;7.80;99.90
19974;DHT22;10148;47.694;9.442;2022-11-20T11:05:41;7.80;99.90
19974;DHT22;10148;47.694;9.442;2022-11-20T11:08:13;7.80;99.90
19974;DHT22;10148;47.694;9.442;2022-11-20T11:10:53;7.80;99.90
19974;DHT22;10148;47.694;9.442;2022-11-20T11:13:25;7.90;99.90
19974;DHT22;10148;47.694;9.442;2022-11-20T11:15:51;7.80;99.90
19974;DHT22;10148;47.694;9.442;2022-11-20T11:18:32;7.80;99.90
19974;DHT22;10148;47.694;9.442;2022-11-20T11:20:59;7.80;99.90
19974;DHT22;10148;47.694;9.442;2022-11-20T11:23:32;7.70;99.90
19974;DHT22;10148;47.694;9.442;2022-11-20T11:26:00;7.70;99.90
19974;DHT22;10148;47.694;9.442;2022-11-20T11:28:26;7.70;99.90
19974;DHT22;10148;47.694;9.442;2022-11-20T11:30:54;7.60;99.90
19974;DHT22;10148;47.694;9.442;2022-11-20T11:33:27;7.60;99.90
19974;DHT22;10148;47.694;9.442;2022-11-20T11:36:01;7.50;99.90
19974;DHT22;10148;47.694;9.442;2022-11-20T11:38:35;7.50;99.90
19974;DHT22;10148;47.694;9.442;2022-11-20T11:41:02;7.50;99.90
19974;DHT22;10148;47.694;9.442;2022-11-20T11:43:31;7.50;99.90
19974;DHT22;10148;47.694;9.442;2022-11-20T11:46:32;7.50;99.90
19974;DHT22;10148;47.694;9.442;2022-11-20T11:51:38;7.50;99.90
19974;DHT22;10148;47.694;9.442;2022-11-20T11:54:19;7.40;99.90
19974;DHT22;10148;47.694;9.442;2022-11-20T11:56:45;7.50;99.90
19974;DHT22;10148;47.694;9.442;2022-11-20T11:59:17;7.50;99.90
19974;DHT22;10148;47.694;9.442;2022-11-20T12:01:47;7.50;99.90
19974;DHT22;10148;47.694;9.442;2022-11-20T12:04:50;7.50;99.90
19974;DHT22;10148;47.694;9.442;2022-11-20T12:07:45;7.50;99.90
19974;DHT22;10148;47.694;9.442;2022-11-20T12:10:37;7.50;99.90
19974;DHT22;10148;47.694;9.442;2022-11-20T12:15:58;7.50;99.90
19974;DHT22;10148;47.694;9.442;2022-11-20T12:18:24;7.50;99.90
19974;DHT22;10148;47.694;9.442;2022-11-20T12:21:16;7.40;99.90
19974;DHT22;10148;47.694;9.442;2022-11-20T12:29:24;7.30;99.90
19974;DHT22;10148;47.694;9.442;2022-11-20T12:37:44;7.30;99.90
19974;DHT22;10148;47.694;9.442;2022-11-20T12:40:33;7.30;99.90
19974;DHT22;10148;47.694;9.442;2022-11-20T12:43:23;7.40;99.90
19974;DHT22;10148;47.694;9.442;2022-11-20T12:46:48;7.40;99.90
19974;DHT22;10148;47.694;9.442;2022-11-20T12:49:41;7.40;99.90
19974;DHT22;10148;47.694;9.442;2022-11-20T12:55:58;7.60;99.90
19974;DHT22;10148;47.694;9.442;2022-11-20T12:58:36;7.60;99.90
19974;DHT22;10148;47.694;9.442;2022-11-20T13:01:19;7.70;99.90
19974;DHT22;10148;47.694;9.442;2022-11-20T13:06:44;7.70;99.90
19974;DHT22;10148;47.694;9.442;2022-11-20T13:09:15;7.80;99.90
19974;DHT22;10148;47.694;9.442;2022-11-20T13:11:56;7.80;99.90
19974;DHT22;10148;47.694;9.442;2022-11-20T13:14:37;7.80;99.90
19974;DHT22;10148;47.694;9.442;2022-11-20T13:17:17;7.70;99.90
19974;DHT22;10148;47.694;9.442;2022-11-20T13:19:52;7.70;99.90
19974;DHT22;10148;47.694;9.442;2022-11-20T13:22:26;7.60;99.90
19974;DHT22;10148;47.694;9.442;2022-11-20T13:24:52;7.60;99.90
19974;DHT22;10148;47.694;9.442;2022-11-20T13:27:20;7.60;99.90
19974;DHT22;10148;47.694;9.442;2022-11-20T13:30:02;7.70;99.90
19974;DHT22;10148;47.694;9.442;2022-11-20T13:33:09;7.70;99.90
19974;DHT22;10148;47.694;9.442;2022-11-20T13:35:34;7.70;99.90
19974;DHT22;10148;47.694;9.442;2022-11-20T13:38:02;7.90;99.90
19974;DHT22;10148;47.694;9.442;2022-11-20T13:40:28;8.70;99.90
19974;DHT22;10148;47.694;9.442;2022-11-20T13:45:28;9.70;99.90
19974;DHT22;10148;47.694;9.442;2022-11-20T13:47:55;9.60;99.90
19974;DHT22;10148;47.694;9.442;2022-11-20T13:55:54;11.20;99.90
19974;DHT22;10148;47.694;9.442;2022-11-20T13:58:52;10.90;99.90
19974;DHT22;10148;47.694;9.442;2022-11-20T14:01:23;10.30;99.90
19974;DHT22;10148;47.694;9.442;2022-11-20T14:03:50;10.90;99.90
19974;DHT22;10148;47.694;9.442;2022-11-20T14:08:49;10.20;99.90
19974;DHT22;10148;47.694;9.442;2022-11-20T14:11:20;9.40;99.90
19974;DHT22;10148;47.694;9.442;2022-11-20T14:13:59;8.90;99.90
19974;DHT22;10148;47.694;9.442;2022-11-20T14:16:27;8.90;99.90
19974;DHT22;10148;47.694;9.442;2022-11-20T14:18:54;9.00;99.90
19974;DHT22;10148;47.694;9.442;2022-11-20T14:21:28;8.70;99.90
19974;DHT22;10148;47.694;9.442;2022-11-20T14:24:11;8.50;99.90
19974;DHT22;10148;47.694;9.442;2022-11-20T14:26:41;8.60;99.90
19974;DHT22;10148;47.694;9.442;2022-11-20T14:29:17;9.40;99.90
19974;DHT22;10148;47.694;9.442;2022-11-20T14:31:44;10.10;99.90
19974;DHT22;10148;47.694;9.442;2022-11-20T14:34:17;10.70;99.90
19974;DHT22;10148;47.694;9.442;2022-11-20T14:36:44;11.10;99.90
19974;DHT22;10148;47.694;9.442;2022-11-20T14:39:21;11.10;99.90
19974;DHT22;10148;47.694;9.442;2022-11-20T14:41:51;11.30;99.90
19974;DHT22;10148;47.694;9.442;2022-11-20T14:44:17;10.60;99.90
19974;DHT22;10148;47.694;9.442;2022-11-20T14:46:45;10.20;99.90
19974;DHT22;10148;47.694;9.442;2022-11-20T14:49:11;9.90;99.90
19974;DHT22;10148;47.694;9.442;2022-11-20T14:51:40;9.50;99.90
19974;DHT22;10148;47.694;9.442;2022-11-20T14:54:18;9.30;99.90
19974;DHT22;10148;47.694;9.442;2022-11-20T14:57:01;9.20;99.90
19974;DHT22;10148;47.694;9.442;2022-11-20T14:59:36;9.00;99.90
19974;DHT22;10148;47.694;9.442;2022-11-20T15:02:09;8.90;99.90
19974;DHT22;10148;47.694;9.442;2022-11-20T15:04:57;8.70;99.90
19974;DHT22;10148;47.694;9.442;2022-11-20T15:07:44;8.50;99.90
19974;DHT22;10148;47.694;9.442;2022-11-20T15:10:12;8.30;99.90
19974;DHT22;10148;47.694;9.442;2022-11-20T15:12:50;8.10;99.90
19974;DHT22;10148;47.694;9.442;2022-11-20T15:15:29;8.00;99.90
19974;DHT22;10148;47.694;9.442;2022-11-20T15:17:55;7.90;99.90
19974;DHT22;10148;47.694;9.442;2022-11-20T15:20:24;7.80;99.90
19974;DHT22;10148;47.694;9.442;2022-11-20T15:22:51;7.80;99.90
19974;DHT22;10148;47.694;9.442;2022-11-20T15:25:17;7.80;99.90
19974;DHT22;10148;47.694;9.442;2022-11-20T15:27:44;7.70;99.90
19974;DHT22;10148;47.694;9.442;2022-11-20T15:30:16;7.70;99.90
19974;DHT22;10148;47.694;9.442;2022-11-20T15:32:43;7.60;99.90
19974;DHT22;10148;47.694;9.442;2022-11-20T15:35:10;7.60;99.90
19974;DHT22;10148;47.694;9.442;2022-11-20T15:37:36;7.50;99.90
19974;DHT22;10148;47.694;9.442;2022-11-20T15:40:02;7.40;99.90
19974;DHT22;10148;47.694;9.442;2022-11-20T15:42:28;7.40;99.90
19974;DHT22;10148;47.694;9.442;2022-11-20T15:44:54;7.30;99.90
19974;DHT22;10148;47.694;9.442;2022-11-20T15:47:33;7.20;99.90
19974;DHT22;10148;47.694;9.442;2022-11-20T15:49:59;7.20;99.90
19974;DHT22;10148;47.694;9.442;2022-11-20T15:52:25;7.20;99.90
19974;DHT22;10148;47.694;9.442;2022-11-20T15:54:50;7.10;99.90
19974;DHT22;10148;47.694;9.442;2022-11-20T15:57:16;7.10;99.90
19974;DHT22;10148;47.694;9.442;2022-11-20T15:59:41;7.10;99.90
19974;DHT22;10148;47.694;9.442;2022-11-20T16:02:11;7.00;99.90
19974;DHT22;10148;47.694;9.442;2022-11-20T16:04:37;7.00;99.90
19974;DHT22;10148;47.694;9.442;2022-11-20T16:07:02;7.00;99.90
19974;DHT22;10148;47.694;9.442;2022-11-20T16:09:28;7.00;99.90
19974;DHT22;10148;47.694;9.442;2022-11-20T16:11:54;7.00;99.90
19974;DHT22;10148;47.694;9.442;2022-11-20T16:14:19;7.00;99.90
19974;DHT22;10148;47.694;9.442;2022-11-20T16:17:03;7.00;99.90
19974;DHT22;10148;47.694;9.442;2022-11-20T16:19:29;7.00;99.90
19974;DHT22;10148;47.694;9.442;2022-11-20T16:21:56;7.00;99.90
19974;DHT22;10148;47.694;9.442;2022-11-20T16:24:22;7.00;99.90
19974;DHT22;10148;47.694;9.442;2022-11-20T16:26:47;6.90;99.90
19974;DHT22;10148;47.694;9.442;2022-11-20T16:29:13;6.90;99.90
19974;DHT22;10148;47.694;9.442;2022-11-20T16:31:39;6.90;99.90
19974;DHT22;10148;47.694;9.442;2022-11-20T16:34:06;6.90;99.90
19974;DHT22;10148;47.694;9.442;2022-11-20T16:36:32;6.90;99.90
19974;DHT22;10148;47.694;9.442;2022-11-20T16:39:00;6.80;99.90
19974;DHT22;10148;47.694;9.442;2022-11-20T16:41:27;6.80;99.90
19974;DHT22;10148;47.694;9.442;2022-11-20T16:43:55;6.80;99.90
19974;DHT22;10148;47.694;9.442;2022-11-20T16:46:23;6.80;99.90
19974;DHT22;10148;47.694;9.442;2022-11-20T16:51:22;6.80;99.90
19974;DHT22;10148;47.694;9.442;2022-11-20T16:53:49;6.80;99.90
19974;DHT22;10148;47.694;9.442;2022-11-20T16:56:19;6.80;99.90
19974;DHT22;10148;47.694;9.442;2022-11-20T16:58:47;6.80;99.90
19974;DHT22;10148;47.694;9.442;2022-11-20T17:01:15;6.80;99.90